sensor_id;sensor_type;location;lat;lon;timestamp;temperature;humidity
21891;DHT22;11110;52.386;16.940;2023-05-10T00:04:58;23.60;32.90
21891;DHT22;11110;52.386;16.940;2023-05-10T00:07:26;23.50;33.20
21891;DHT22;11110;52.386;16.940;2023-05-10T00:09:54;23.50;33.10
21891;DHT22;11110;52.386;16.940;2023-05-10T00:12:22;23.60;33.70
21891;DHT22;11110;52.386;16.940;2023-05-10T00:14:51;23.50;32.90
21891;DHT22;11110;52.386;16.940;2023-05-10T00:17:19;23.40;33.00
21891;DHT22;11110;52.386;16.940;2023-05-10T00:19:48;23.50;33.10
21891;DHT22;11110;52.386;16.940;2023-05-10T00:22:18;23.50;33.20
21891;DHT22;11110;52.386;16.940;2023-05-10T00:24:46;23.50;33.00
21891;DHT22;11110;52.386;16.940;2023-05-10T00:27:15;23.40;33.10
21891;DHT22;11110;52.386;16.940;2023-05-10T00:29:43;23.40;32.80
21891;DHT22;11110;52.386;16.940;2023-05-10T00:32:12;23.40;33.10
21891;DHT22;11110;52.386;16.940;2023-05-10T00:34:41;23.30;33.20
21891;DHT22;11110;52.386;16.940;2023-05-10T00:37:09;23.30;33.00
21891;DHT22;11110;52.386;16.940;2023-05-10T00:39:39;23.30;33.10
21891;DHT22;11110;52.386;16.940;2023-05-10T00:42:08;23.20;33.10
21891;DHT22;11110;52.386;16.940;2023-05-10T00:44:37;23.20;33.10
21891;DHT22;11110;52.386;16.940;2023-05-10T00:47:05;23.20;33.10
21891;DHT22;11110;52.386;16.940;2023-05-10T00:49:35;23.10;33.10
21891;DHT22;11110;52.386;16.940;2023-05-10T00:52:04;23.10;33.10
21891;DHT22;11110;52.386;16.940;2023-05-10T00:54:33;23.10;33.30
21891;DHT22;11110;52.386;16.940;2023-05-10T00:57:03;23.10;33.20
21891;DHT22;11110;52.386;16.940;2023-05-10T00:59:32;23.10;33.20
21891;DHT22;11110;52.386;16.940;2023-05-10T01:02:01;23.00;33.40
21891;DHT22;11110;52.386;16.940;2023-05-10T01:04:30;23.10;33.30
21891;DHT22;11110;52.386;16.940;2023-05-10T01:06:59;23.00;33.20
21891;DHT22;11110;52.386;16.940;2023-05-10T01:09:28;23.00;33.30
21891;DHT22;11110;52.386;16.940;2023-05-10T01:11:57;22.90;33.00
21891;DHT22;11110;52.386;16.940;2023-05-10T01:14:27;22.90;33.00
21891;DHT22;11110;52.386;16.940;2023-05-10T01:16:56;22.90;33.00
21891;DHT22;11110;52.386;16.940;2023-05-10T01:19:26;22.90;33.10
21891;DHT22;11110;52.386;16.940;2023-05-10T01:22:01;23.00;33.30
21891;DHT22;11110;52.386;16.940;2023-05-10T01:27:54;23.00;33.40
21891;DHT22;11110;52.386;16.940;2023-05-10T01:33:39;22.90;33.20
21891;DHT22;11110;52.386;16.940;2023-05-10T01:36:16;22.90;33.20
21891;DHT22;11110;52.386;16.940;2023-05-10T01:38:50;22.90;33.10
21891;DHT22;11110;52.386;16.940;2023-05-10T01:41:28;22.90;33.30
21891;DHT22;11110;52.386;16.940;2023-05-10T01:44:05;22.90;33.30
21891;DHT22;11110;52.386;16.940;2023-05-10T01:46:38;23.00;33.50
21891;DHT22;11110;52.386;16.940;2023-05-10T01:49:13;22.90;33.50
21891;DHT22;11110;52.386;16.940;2023-05-10T01:51:47;22.90;33.30
21891;DHT22;11110;52.386;16.940;2023-05-10T01:54:18;22.90;33.40
21891;DHT22;11110;52.386;16.940;2023-05-10T01:56:52;22.90;33.40
21891;DHT22;11110;52.386;16.940;2023-05-10T01:59:27;22.90;33.40
21891;DHT22;11110;52.386;16.940;2023-05-10T02:01:58;22.90;33.40
21891;DHT22;11110;52.386;16.940;2023-05-10T02:04:29;22.90;33.40
21891;DHT22;11110;52.386;16.940;2023-05-10T02:06:58;22.80;33.60
21891;DHT22;11110;52.386;16.940;2023-05-10T02:09:28;22.70;33.60
21891;DHT22;11110;52.386;16.940;2023-05-10T02:11:58;22.70;33.50
21891;DHT22;11110;52.386;16.940;2023-05-10T02:14:28;22.70;33.90
21891;DHT22;11110;52.386;16.940;2023-05-10T02:16:58;22.60;34.00
21891;DHT22;11110;52.386;16.940;2023-05-10T02:19:30;22.70;34.00
21891;DHT22;11110;52.386;16.940;2023-05-10T02:22:01;22.60;33.80
21891;DHT22;11110;52.386;16.940;2023-05-10T02:24:32;22.60;34.00
21891;DHT22;11110;52.386;16.940;2023-05-10T02:27:03;22.60;34.10
21891;DHT22;11110;52.386;16.940;2023-05-10T02:29:32;22.60;34.10
21891;DHT22;11110;52.386;16.940;2023-05-10T02:32:02;22.60;34.70
21891;DHT22;11110;52.386;16.940;2023-05-10T02:34:33;22.50;34.20
21891;DHT22;11110;52.386;16.940;2023-05-10T02:37:02;22.50;34.20
21891;DHT22;11110;52.386;16.940;2023-05-10T02:39:32;22.50;34.30
21891;DHT22;11110;52.386;16.940;2023-05-10T02:42:02;22.40;34.30
21891;DHT22;11110;52.386;16.940;2023-05-10T02:44:31;22.40;34.20
21891;DHT22;11110;52.386;16.940;2023-05-10T02:47:00;22.30;34.40
21891;DHT22;11110;52.386;16.940;2023-05-10T02:49:29;22.30;34.40
21891;DHT22;11110;52.386;16.940;2023-05-10T02:52:01;22.30;34.50
21891;DHT22;11110;52.386;16.940;2023-05-10T02:54:41;22.40;34.60
21891;DHT22;11110;52.386;16.940;2023-05-10T02:57:16;22.40;34.70
21891;DHT22;11110;52.386;16.940;2023-05-10T02:59:46;22.30;34.70
21891;DHT22;11110;52.386;16.940;2023-05-10T03:02:15;22.30;34.70
21891;DHT22;11110;52.386;16.940;2023-05-10T03:04:44;22.30;34.70
21891;DHT22;11110;52.386;16.940;2023-05-10T03:07:15;22.30;34.80
21891;DHT22;11110;52.386;16.940;2023-05-10T03:09:44;22.30;34.80
21891;DHT22;11110;52.386;16.940;2023-05-10T03:12:19;22.20;34.80
21891;DHT22;11110;52.386;16.940;2023-05-10T03:15:00;22.30;35.00
21891;DHT22;11110;52.386;16.940;2023-05-10T03:17:39;22.20;35.00
21891;DHT22;11110;52.386;16.940;2023-05-10T03:20:10;22.20;34.80
21891;DHT22;11110;52.386;16.940;2023-05-10T03:22:47;22.20;35.00
21891;DHT22;11110;52.386;16.940;2023-05-10T03:25:17;22.10;35.00
21891;DHT22;11110;52.386;16.940;2023-05-10T03:27:47;22.10;35.20
21891;DHT22;11110;52.386;16.940;2023-05-10T03:30:16;22.00;35.20
21891;DHT22;11110;52.386;16.940;2023-05-10T03:32:45;22.00;35.20
21891;DHT22;11110;52.386;16.940;2023-05-10T03:35:16;21.90;35.50
21891;DHT22;11110;52.386;16.940;2023-05-10T03:37:46;21.90;35.60
21891;DHT22;11110;52.386;16.940;2023-05-10T03:40:14;21.80;35.40
21891;DHT22;11110;52.386;16.940;2023-05-10T03:42:44;21.80;35.80
21891;DHT22;11110;52.386;16.940;2023-05-10T03:45:12;21.70;36.30
21891;DHT22;11110;52.386;16.940;2023-05-10T03:47:41;21.60;35.60
21891;DHT22;11110;52.386;16.940;2023-05-10T03:50:09;21.60;35.90
21891;DHT22;11110;52.386;16.940;2023-05-10T03:52:38;21.60;35.90
21891;DHT22;11110;52.386;16.940;2023-05-10T03:55:08;21.60;36.00
21891;DHT22;11110;52.386;16.940;2023-05-10T03:57:37;21.60;35.80
21891;DHT22;11110;52.386;16.940;2023-05-10T04:00:07;21.60;35.80
21891;DHT22;11110;52.386;16.940;2023-05-10T04:02:42;21.60;36.00
21891;DHT22;11110;52.386;16.940;2023-05-10T04:05:17;21.60;36.10
21891;DHT22;11110;52.386;16.940;2023-05-10T04:07:46;21.50;36.00
21891;DHT22;11110;52.386;16.940;2023-05-10T04:10:17;21.60;36.20
21891;DHT22;11110;52.386;16.940;2023-05-10T04:12:46;21.60;36.10
21891;DHT22;11110;52.386;16.940;2023-05-10T04:15:14;21.60;36.20
21891;DHT22;11110;52.386;16.940;2023-05-10T04:17:43;21.60;36.20
21891;DHT22;11110;52.386;16.940;2023-05-10T04:20:12;21.70;36.40
21891;DHT22;11110;52.386;16.940;2023-05-10T04:22:41;21.80;36.30
21891;DHT22;11110;52.386;16.940;2023-05-10T04:25:10;21.80;36.20
21891;DHT22;11110;52.386;16.940;2023-05-10T04:27:40;21.90;36.10
21891;DHT22;11110;52.386;16.940;2023-05-10T04:30:09;21.90;36.20
21891;DHT22;11110;52.386;16.940;2023-05-10T04:32:38;21.90;36.10
21891;DHT22;11110;52.386;16.940;2023-05-10T04:35:07;21.90;36.20
21891;DHT22;11110;52.386;16.940;2023-05-10T04:37:37;21.90;36.20
21891;DHT22;11110;52.386;16.940;2023-05-10T04:40:07;21.90;36.30
21891;DHT22;11110;52.386;16.940;2023-05-10T04:42:35;21.90;36.40
21891;DHT22;11110;52.386;16.940;2023-05-10T04:45:06;21.90;36.40
21891;DHT22;11110;52.386;16.940;2023-05-10T04:47:36;22.00;36.40
21891;DHT22;11110;52.386;16.940;2023-05-10T04:50:06;22.00;36.30
21891;DHT22;11110;52.386;16.940;2023-05-10T04:52:34;22.10;36.60
21891;DHT22;11110;52.386;16.940;2023-05-10T04:55:04;22.10;36.30
21891;DHT22;11110;52.386;16.940;2023-05-10T04:57:34;22.10;36.10
21891;DHT22;11110;52.386;16.940;2023-05-10T05:00:05;22.10;36.00
21891;DHT22;11110;52.386;16.940;2023-05-10T05:02:34;22.20;36.10
21891;DHT22;11110;52.386;16.940;2023-05-10T05:05:04;22.20;36.50
21891;DHT22;11110;52.386;16.940;2023-05-10T05:07:32;22.20;36.50
21891;DHT22;11110;52.386;16.940;2023-05-10T05:10:00;22.30;36.30
21891;DHT22;11110;52.386;16.940;2023-05-10T05:12:30;22.30;36.20
21891;DHT22;11110;52.386;16.940;2023-05-10T05:14:58;22.30;36.30
21891;DHT22;11110;52.386;16.940;2023-05-10T05:17:30;22.30;36.00
21891;DHT22;11110;52.386;16.940;2023-05-10T05:19:58;22.40;36.30
21891;DHT22;11110;52.386;16.940;2023-05-10T05:22:27;22.30;36.30
21891;DHT22;11110;52.386;16.940;2023-05-10T05:24:56;22.30;36.20
21891;DHT22;11110;52.386;16.940;2023-05-10T05:27:25;22.30;36.50
21891;DHT22;11110;52.386;16.940;2023-05-10T05:29:55;22.30;36.60
21891;DHT22;11110;52.386;16.940;2023-05-10T05:32:24;22.40;36.70
21891;DHT22;11110;52.386;16.940;2023-05-10T05:34:54;22.50;36.70
21891;DHT22;11110;52.386;16.940;2023-05-10T05:37:23;22.50;37.30
21891;DHT22;11110;52.386;16.940;2023-05-10T05:39:51;22.60;36.60
21891;DHT22;11110;52.386;16.940;2023-05-10T05:42:21;22.60;36.50
21891;DHT22;11110;52.386;16.940;2023-05-10T05:44:50;22.70;36.30
21891;DHT22;11110;52.386;16.940;2023-05-10T05:47:18;22.60;36.10
21891;DHT22;11110;52.386;16.940;2023-05-10T05:49:47;22.70;36.40
21891;DHT22;11110;52.386;16.940;2023-05-10T05:52:17;22.70;36.40
21891;DHT22;11110;52.386;16.940;2023-05-10T05:54:45;23.20;36.60
21891;DHT22;11110;52.386;16.940;2023-05-10T05:57:14;22.60;36.10
21891;DHT22;11110;52.386;16.940;2023-05-10T05:59:42;22.60;36.40
21891;DHT22;11110;52.386;16.940;2023-05-10T06:02:11;22.70;36.60
21891;DHT22;11110;52.386;16.940;2023-05-10T06:04:39;22.70;36.50
21891;DHT22;11110;52.386;16.940;2023-05-10T06:07:11;22.80;36.30
21891;DHT22;11110;52.386;16.940;2023-05-10T06:09:40;22.80;35.90
21891;DHT22;11110;52.386;16.940;2023-05-10T06:12:09;22.80;35.80
21891;DHT22;11110;52.386;16.940;2023-05-10T06:14:38;22.90;35.70
21891;DHT22;11110;52.386;16.940;2023-05-10T06:17:07;23.00;36.00
21891;DHT22;11110;52.386;16.940;2023-05-10T06:19:35;23.10;36.10
21891;DHT22;11110;52.386;16.940;2023-05-10T06:22:04;23.10;35.60
21891;DHT22;11110;52.386;16.940;2023-05-10T06:24:32;23.10;35.80
21891;DHT22;11110;52.386;16.940;2023-05-10T06:27:02;23.20;35.50
21891;DHT22;11110;52.386;16.940;2023-05-10T06:29:31;23.20;35.40
21891;DHT22;11110;52.386;16.940;2023-05-10T06:31:59;23.30;35.50
21891;DHT22;11110;52.386;16.940;2023-05-10T06:34:28;23.40;35.50
21891;DHT22;11110;52.386;16.940;2023-05-10T06:36:56;23.40;35.50
21891;DHT22;11110;52.386;16.940;2023-05-10T06:39:25;23.40;35.30
21891;DHT22;11110;52.386;16.940;2023-05-10T06:41:54;23.50;35.30
21891;DHT22;11110;52.386;16.940;2023-05-10T06:44:23;23.60;35.40
21891;DHT22;11110;52.386;16.940;2023-05-10T06:46:52;23.70;35.30
21891;DHT22;11110;52.386;16.940;2023-05-10T06:49:22;23.70;35.40
21891;DHT22;11110;52.386;16.940;2023-05-10T06:51:50;23.80;35.20
21891;DHT22;11110;52.386;16.940;2023-05-10T06:54:19;23.90;35.80
21891;DHT22;11110;52.386;16.940;2023-05-10T06:56:47;24.00;35.40
21891;DHT22;11110;52.386;16.940;2023-05-10T06:59:15;24.00;35.10
21891;DHT22;11110;52.386;16.940;2023-05-10T07:01:47;24.00;35.00
21891;DHT22;11110;52.386;16.940;2023-05-10T07:04:16;24.10;34.70
21891;DHT22;11110;52.386;16.940;2023-05-10T07:06:45;24.10;35.10
21891;DHT22;11110;52.386;16.940;2023-05-10T07:09:13;24.20;35.10
21891;DHT22;11110;52.386;16.940;2023-05-10T07:11:42;24.30;34.80
21891;DHT22;11110;52.386;16.940;2023-05-10T07:14:10;24.40;34.70
21891;DHT22;11110;52.386;16.940;2023-05-10T07:16:39;24.40;34.70
21891;DHT22;11110;52.386;16.940;2023-05-10T07:19:09;24.50;34.80
21891;DHT22;11110;52.386;16.940;2023-05-10T07:21:38;24.70;34.70
21891;DHT22;11110;52.386;16.940;2023-05-10T07:24:07;24.80;34.60
21891;DHT22;11110;52.386;16.940;2023-05-10T07:26:35;24.80;34.40
21891;DHT22;11110;52.386;16.940;2023-05-10T07:29:04;24.90;34.40
21891;DHT22;11110;52.386;16.940;2023-05-10T07:31:32;25.00;34.70
21891;DHT22;11110;52.386;16.940;2023-05-10T07:34:01;25.00;34.30
21891;DHT22;11110;52.386;16.940;2023-05-10T07:36:31;25.20;34.20
21891;DHT22;11110;52.386;16.940;2023-05-10T07:38:59;25.20;34.20
21891;DHT22;11110;52.386;16.940;2023-05-10T07:41:28;25.20;34.20
21891;DHT22;11110;52.386;16.940;2023-05-10T07:43:56;25.30;34.90
21891;DHT22;11110;52.386;16.940;2023-05-10T07:46:25;25.40;34.60
21891;DHT22;11110;52.386;16.940;2023-05-10T07:48:54;25.50;34.30
21891;DHT22;11110;52.386;16.940;2023-05-10T07:51:22;25.60;34.10
21891;DHT22;11110;52.386;16.940;2023-05-10T07:53:52;25.60;34.10
21891;DHT22;11110;52.386;16.940;2023-05-10T07:56:23;25.70;34.40
21891;DHT22;11110;52.386;16.940;2023-05-10T07:58:52;25.80;34.20
21891;DHT22;11110;52.386;16.940;2023-05-10T08:01:20;25.80;33.80
21891;DHT22;11110;52.386;16.940;2023-05-10T08:03:49;25.90;33.90
21891;DHT22;11110;52.386;16.940;2023-05-10T08:06:19;26.00;34.20
21891;DHT22;11110;52.386;16.940;2023-05-10T08:08:48;26.00;33.80
21891;DHT22;11110;52.386;16.940;2023-05-10T08:11:19;26.10;33.70
21891;DHT22;11110;52.386;16.940;2023-05-10T08:13:49;26.30;34.00
21891;DHT22;11110;52.386;16.940;2023-05-10T08:16:18;26.40;34.10
21891;DHT22;11110;52.386;16.940;2023-05-10T08:18:47;26.40;33.90
21891;DHT22;11110;52.386;16.940;2023-05-10T08:21:16;26.50;34.00
21891;DHT22;11110;52.386;16.940;2023-05-10T08:23:44;26.60;33.50
21891;DHT22;11110;52.386;16.940;2023-05-10T08:26:13;26.70;33.30
21891;DHT22;11110;52.386;16.940;2023-05-10T08:28:43;26.80;33.60
21891;DHT22;11110;52.386;16.940;2023-05-10T08:31:12;26.80;33.10
21891;DHT22;11110;52.386;16.940;2023-05-10T08:33:40;26.80;32.50
21891;DHT22;11110;52.386;16.940;2023-05-10T08:36:11;26.90;32.80
21891;DHT22;11110;52.386;16.940;2023-05-10T08:38:41;26.90;33.60
21891;DHT22;11110;52.386;16.940;2023-05-10T08:41:10;27.00;32.60
21891;DHT22;11110;52.386;16.940;2023-05-10T08:43:39;27.10;32.50
21891;DHT22;11110;52.386;16.940;2023-05-10T08:46:10;27.10;32.50
21891;DHT22;11110;52.386;16.940;2023-05-10T08:48:39;27.20;32.20
21891;DHT22;11110;52.386;16.940;2023-05-10T08:51:09;27.30;32.40
21891;DHT22;11110;52.386;16.940;2023-05-10T08:53:39;27.40;32.50
21891;DHT22;11110;52.386;16.940;2023-05-10T08:56:08;27.50;32.20
21891;DHT22;11110;52.386;16.940;2023-05-10T08:58:37;27.50;31.70
21891;DHT22;11110;52.386;16.940;2023-05-10T09:01:06;27.50;31.00
21891;DHT22;11110;52.386;16.940;2023-05-10T09:03:38;27.50;31.00
21891;DHT22;11110;52.386;16.940;2023-05-10T09:06:07;27.60;30.70
21891;DHT22;11110;52.386;16.940;2023-05-10T09:08:36;27.60;31.00
21891;DHT22;11110;52.386;16.940;2023-05-10T09:11:05;27.70;30.60
21891;DHT22;11110;52.386;16.940;2023-05-10T09:13:35;27.60;30.20
21891;DHT22;11110;52.386;16.940;2023-05-10T09:16:04;27.70;30.00
21891;DHT22;11110;52.386;16.940;2023-05-10T09:18:49;27.80;29.20
21891;DHT22;11110;52.386;16.940;2023-05-10T09:21:19;27.90;29.60
21891;DHT22;11110;52.386;16.940;2023-05-10T09:23:48;27.90;29.30
21891;DHT22;11110;52.386;16.940;2023-05-10T09:26:22;28.00;29.20
21891;DHT22;11110;52.386;16.940;2023-05-10T09:28:51;28.00;29.10
21891;DHT22;11110;52.386;16.940;2023-05-10T09:31:21;28.00;28.70
21891;DHT22;11110;52.386;16.940;2023-05-10T09:33:51;28.10;28.40
21891;DHT22;11110;52.386;16.940;2023-05-10T09:36:20;28.00;27.90
21891;DHT22;11110;52.386;16.940;2023-05-10T09:38:49;28.10;28.30
21891;DHT22;11110;52.386;16.940;2023-05-10T09:41:19;28.20;27.80
21891;DHT22;11110;52.386;16.940;2023-05-10T09:43:48;28.20;28.10
21891;DHT22;11110;52.386;16.940;2023-05-10T09:46:16;28.30;28.80
21891;DHT22;11110;52.386;16.940;2023-05-10T09:48:46;28.40;28.20
21891;DHT22;11110;52.386;16.940;2023-05-10T09:51:20;28.50;28.60
21891;DHT22;11110;52.386;16.940;2023-05-10T09:54:08;28.60;28.40
21891;DHT22;11110;52.386;16.940;2023-05-10T09:56:38;28.70;28.00
21891;DHT22;11110;52.386;16.940;2023-05-10T09:59:09;28.70;28.00
21891;DHT22;11110;52.386;16.940;2023-05-10T10:01:38;28.80;28.80
21891;DHT22;11110;52.386;16.940;2023-05-10T10:04:10;28.80;27.90
21891;DHT22;11110;52.386;16.940;2023-05-10T10:06:40;28.90;28.30
21891;DHT22;11110;52.386;16.940;2023-05-10T10:09:09;29.00;27.50
21891;DHT22;11110;52.386;16.940;2023-05-10T10:11:38;29.10;27.90
21891;DHT22;11110;52.386;16.940;2023-05-10T10:14:08;29.10;28.00
21891;DHT22;11110;52.386;16.940;2023-05-10T10:16:37;29.10;28.10
21891;DHT22;11110;52.386;16.940;2023-05-10T10:19:22;29.20;28.00
21891;DHT22;11110;52.386;16.940;2023-05-10T10:21:52;29.30;27.70
21891;DHT22;11110;52.386;16.940;2023-05-10T10:24:20;29.30;27.40
21891;DHT22;11110;52.386;16.940;2023-05-10T10:26:49;29.50;27.60
21891;DHT22;11110;52.386;16.940;2023-05-10T10:29:25;29.50;27.00
21891;DHT22;11110;52.386;16.940;2023-05-10T10:32:02;29.50;27.30
21891;DHT22;11110;52.386;16.940;2023-05-10T10:34:35;29.40;26.90
21891;DHT22;11110;52.386;16.940;2023-05-10T10:37:06;29.40;27.10
21891;DHT22;11110;52.386;16.940;2023-05-10T10:39:34;29.50;27.40
21891;DHT22;11110;52.386;16.940;2023-05-10T10:42:04;29.60;27.40
21891;DHT22;11110;52.386;16.940;2023-05-10T10:44:38;29.70;27.10
21891;DHT22;11110;52.386;16.940;2023-05-10T10:47:22;29.60;27.30
21891;DHT22;11110;52.386;16.940;2023-05-10T10:49:53;29.70;26.60
21891;DHT22;11110;52.386;16.940;2023-05-10T10:52:33;29.80;27.10
21891;DHT22;11110;52.386;16.940;2023-05-10T10:55:03;29.90;27.30
21891;DHT22;11110;52.386;16.940;2023-05-10T10:57:43;30.00;27.40
21891;DHT22;11110;52.386;16.940;2023-05-10T11:00:23;30.00;27.00
21891;DHT22;11110;52.386;16.940;2023-05-10T11:02:53;30.10;27.20
21891;DHT22;11110;52.386;16.940;2023-05-10T11:05:24;30.10;27.00
21891;DHT22;11110;52.386;16.940;2023-05-10T11:07:55;30.10;26.90
21891;DHT22;11110;52.386;16.940;2023-05-10T11:10:25;30.20;27.30
21891;DHT22;11110;52.386;16.940;2023-05-10T11:12:59;30.30;27.40
21891;DHT22;11110;52.386;16.940;2023-05-10T11:15:29;30.40;27.70
21891;DHT22;11110;52.386;16.940;2023-05-10T11:17:59;30.40;27.40
21891;DHT22;11110;52.386;16.940;2023-05-10T11:20:27;30.50;27.20
21891;DHT22;11110;52.386;16.940;2023-05-10T11:23:12;30.40;27.10
21891;DHT22;11110;52.386;16.940;2023-05-10T11:25:43;30.40;26.90
21891;DHT22;11110;52.386;16.940;2023-05-10T11:28:13;30.30;26.60
21891;DHT22;11110;52.386;16.940;2023-05-10T11:30:43;30.40;26.70
21891;DHT22;11110;52.386;16.940;2023-05-10T11:33:15;30.60;26.60
21891;DHT22;11110;52.386;16.940;2023-05-10T11:35:45;30.60;26.80
21891;DHT22;11110;52.386;16.940;2023-05-10T11:38:15;30.60;26.70
21891;DHT22;11110;52.386;16.940;2023-05-10T11:40:44;30.60;27.20
21891;DHT22;11110;52.386;16.940;2023-05-10T11:43:12;30.80;27.10
21891;DHT22;11110;52.386;16.940;2023-05-10T11:45:42;30.80;27.20
21891;DHT22;11110;52.386;16.940;2023-05-10T11:48:11;30.90;26.60
21891;DHT22;11110;52.386;16.940;2023-05-10T11:50:39;31.00;27.60
21891;DHT22;11110;52.386;16.940;2023-05-10T11:53:08;31.00;26.90
21891;DHT22;11110;52.386;16.940;2023-05-10T11:55:37;31.20;27.00
21891;DHT22;11110;52.386;16.940;2023-05-10T11:58:06;31.10;26.50
21891;DHT22;11110;52.386;16.940;2023-05-10T12:00:34;31.20;26.40
21891;DHT22;11110;52.386;16.940;2023-05-10T12:03:03;31.20;27.30
21891;DHT22;11110;52.386;16.940;2023-05-10T12:05:32;31.30;26.40
21891;DHT22;11110;52.386;16.940;2023-05-10T12:08:11;31.40;26.40
21891;DHT22;11110;52.386;16.940;2023-05-10T12:10:42;31.60;26.60
21891;DHT22;11110;52.386;16.940;2023-05-10T12:13:13;31.60;26.60
21891;DHT22;11110;52.386;16.940;2023-05-10T12:15:43;31.60;26.70
21891;DHT22;11110;52.386;16.940;2023-05-10T12:18:12;31.70;26.30
21891;DHT22;11110;52.386;16.940;2023-05-10T12:20:41;31.90;26.50
21891;DHT22;11110;52.386;16.940;2023-05-10T12:23:10;31.90;26.10
21891;DHT22;11110;52.386;16.940;2023-05-10T12:25:38;32.00;26.20
21891;DHT22;11110;52.386;16.940;2023-05-10T12:28:09;32.10;26.00
21891;DHT22;11110;52.386;16.940;2023-05-10T12:30:38;32.10;26.50
21891;DHT22;11110;52.386;16.940;2023-05-10T12:33:11;32.30;26.60
21891;DHT22;11110;52.386;16.940;2023-05-10T12:35:47;32.40;25.90
21891;DHT22;11110;52.386;16.940;2023-05-10T12:38:28;32.40;26.00
21891;DHT22;11110;52.386;16.940;2023-05-10T12:40:59;32.40;26.00
21891;DHT22;11110;52.386;16.940;2023-05-10T12:43:29;32.40;25.60
21891;DHT22;11110;52.386;16.940;2023-05-10T12:45:58;32.40;25.80
21891;DHT22;11110;52.386;16.940;2023-05-10T12:48:32;32.50;25.80
21891;DHT22;11110;52.386;16.940;2023-05-10T12:51:01;32.60;25.30
21891;DHT22;11110;52.386;16.940;2023-05-10T12:53:30;32.70;25.30
21891;DHT22;11110;52.386;16.940;2023-05-10T12:55:59;32.80;26.40
21891;DHT22;11110;52.386;16.940;2023-05-10T12:58:29;32.80;25.30
21891;DHT22;11110;52.386;16.940;2023-05-10T13:01:04;32.80;25.60
21891;DHT22;11110;52.386;16.940;2023-05-10T13:03:33;32.80;25.80
21891;DHT22;11110;52.386;16.940;2023-05-10T13:06:01;32.80;25.70
21891;DHT22;11110;52.386;16.940;2023-05-10T13:08:33;32.90;25.70
21891;DHT22;11110;52.386;16.940;2023-05-10T13:11:13;33.00;26.00
21891;DHT22;11110;52.386;16.940;2023-05-10T13:13:45;33.00;25.80
21891;DHT22;11110;52.386;16.940;2023-05-10T13:16:13;33.10;25.80
21891;DHT22;11110;52.386;16.940;2023-05-10T13:18:44;33.20;25.50
21891;DHT22;11110;52.386;16.940;2023-05-10T13:21:12;33.20;25.60
21891;DHT22;11110;52.386;16.940;2023-05-10T13:23:44;33.30;25.70
21891;DHT22;11110;52.386;16.940;2023-05-10T13:26:13;33.40;25.80
21891;DHT22;11110;52.386;16.940;2023-05-10T13:28:42;33.40;25.00
21891;DHT22;11110;52.386;16.940;2023-05-10T13:31:11;33.40;24.60
21891;DHT22;11110;52.386;16.940;2023-05-10T13:33:40;33.40;24.20
21891;DHT22;11110;52.386;16.940;2023-05-10T13:36:08;33.40;24.60
21891;DHT22;11110;52.386;16.940;2023-05-10T13:38:37;33.40;24.70
21891;DHT22;11110;52.386;16.940;2023-05-10T13:41:05;33.50;25.70
21891;DHT22;11110;52.386;16.940;2023-05-10T13:43:34;33.60;26.00
21891;DHT22;11110;52.386;16.940;2023-05-10T13:46:03;33.60;25.60
21891;DHT22;11110;52.386;16.940;2023-05-10T13:48:35;33.70;25.70
21891;DHT22;11110;52.386;16.940;2023-05-10T13:51:05;33.80;25.80
21891;DHT22;11110;52.386;16.940;2023-05-10T13:53:33;33.80;25.50
21891;DHT22;11110;52.386;16.940;2023-05-10T13:56:02;33.90;25.10
21891;DHT22;11110;52.386;16.940;2023-05-10T13:58:31;33.90;25.20
21891;DHT22;11110;52.386;16.940;2023-05-10T14:00:59;34.00;25.50
21891;DHT22;11110;52.386;16.940;2023-05-10T14:03:28;34.00;24.70
21891;DHT22;11110;52.386;16.940;2023-05-10T14:05:58;34.00;25.00
21891;DHT22;11110;52.386;16.940;2023-05-10T14:08:27;34.00;24.80
21891;DHT22;11110;52.386;16.940;2023-05-10T14:10:55;34.00;25.10
21891;DHT22;11110;52.386;16.940;2023-05-10T14:13:24;33.90;25.30
21891;DHT22;11110;52.386;16.940;2023-05-10T14:15:53;33.90;25.10
21891;DHT22;11110;52.386;16.940;2023-05-10T14:18:22;33.90;24.90
21891;DHT22;11110;52.386;16.940;2023-05-10T14:20:50;34.00;25.00
21891;DHT22;11110;52.386;16.940;2023-05-10T14:23:21;34.00;25.00
21891;DHT22;11110;52.386;16.940;2023-05-10T14:25:51;34.10;25.50
21891;DHT22;11110;52.386;16.940;2023-05-10T14:28:20;34.00;24.70
21891;DHT22;11110;52.386;16.940;2023-05-10T14:30:49;34.20;25.50
21891;DHT22;11110;52.386;16.940;2023-05-10T14:33:22;34.10;25.00
21891;DHT22;11110;52.386;16.940;2023-05-10T14:35:56;34.10;24.90
21891;DHT22;11110;52.386;16.940;2023-05-10T14:38:31;34.10;24.60
21891;DHT22;11110;52.386;16.940;2023-05-10T14:40:59;34.10;24.80
21891;DHT22;11110;52.386;16.940;2023-05-10T14:43:33;34.10;25.20
21891;DHT22;11110;52.386;16.940;2023-05-10T14:46:02;34.10;24.90
21891;DHT22;11110;52.386;16.940;2023-05-10T14:48:35;34.00;25.20
21891;DHT22;11110;52.386;16.940;2023-05-10T14:51:06;33.90;24.80
21891;DHT22;11110;52.386;16.940;2023-05-10T14:54:20;33.90;24.90
21891;DHT22;11110;52.386;16.940;2023-05-10T14:56:49;33.90;25.10
21891;DHT22;11110;52.386;16.940;2023-05-10T14:59:17;33.80;25.30
21891;DHT22;11110;52.386;16.940;2023-05-10T15:01:46;33.80;25.50
21891;DHT22;11110;52.386;16.940;2023-05-10T15:04:16;33.80;25.50
21891;DHT22;11110;52.386;16.940;2023-05-10T15:06:44;33.80;26.10
21891;DHT22;11110;52.386;16.940;2023-05-10T15:09:13;33.80;25.90
21891;DHT22;11110;52.386;16.940;2023-05-10T15:11:44;33.80;25.90
21891;DHT22;11110;52.386;16.940;2023-05-10T15:14:12;33.80;26.00
21891;DHT22;11110;52.386;16.940;2023-05-10T15:16:40;33.80;26.00
21891;DHT22;11110;52.386;16.940;2023-05-10T15:19:09;34.00;26.30
21891;DHT22;11110;52.386;16.940;2023-05-10T15:21:37;34.00;25.90
21891;DHT22;11110;52.386;16.940;2023-05-10T15:24:06;34.10;25.70
21891;DHT22;11110;52.386;16.940;2023-05-10T15:26:34;34.20;25.70
21891;DHT22;11110;52.386;16.940;2023-05-10T15:29:04;34.20;25.40
21891;DHT22;11110;52.386;16.940;2023-05-10T15:31:32;34.30;25.50
21891;DHT22;11110;52.386;16.940;2023-05-10T15:34:02;34.30;25.50
21891;DHT22;11110;52.386;16.940;2023-05-10T15:36:31;34.30;25.70
21891;DHT22;11110;52.386;16.940;2023-05-10T15:39:00;34.30;25.70
21891;DHT22;11110;52.386;16.940;2023-05-10T15:41:28;34.30;25.80
21891;DHT22;11110;52.386;16.940;2023-05-10T15:43:57;34.40;25.60